This site, now in its 15th season, is a labour of love and fun from one of Ottawa's most avid time trialists and number crunchers. It adheres to and is permitted by the laws of Canada, promotes the objectives of every bicycle club whose results are shown, and is donated free of charge by myself for your enjoyment and usage. If you would like results from series you ride in to be shown here, give me (celia@drmath.ca) a shout!


Index Page
ATT OTT WTT AATT CFCTT VVVTT
Help resultformat:
Case-sensitive

OBC Open TT Series - 1994-Sep-01 - 15km (Rockliffe Pkwy) (EvtFactor = 0.9256)

Weather (18:00): Mainly Clear. Temp.: 17.0C, Humidity: 45%, DewPoint: 5.1C, Wind: NW 19km/h, Pressure: 100.46kPa, Visibility: 40.2km.
Weather (19:00): Mainly Clear. Temp.: 15.9C, Humidity: 48%, DewPoint: 4.9C, Wind: NW 13km/h, Pressure: 100.53kPa, Visibility: 40.2km.
Weather (20:00): Mainly Clear. Temp.: 14.2C, Humidity: 58%, DewPoint: 6.0C, Wind: NW 13km/h, Pressure: 100.56kPa, Visibility: 40.2km.

Send photos with description (when/where/what) of yourself on or off of bike to celia@drmath.ca

 
 

BESTS?
 
1 Vokes, Robert --- 20:33 43.796 1/48 OSEM 1/25 1.0049
2 Mackie, Jim --- 20:41 43.513 2/48 OSEM 2/25  
3 Roy, Patrick OBC 20:45 43.373 3/48 OVAM 1/11 0.8557
4 McCutcheon, Drew --- 20:59 42.891 4/48 OSEM 3/25 0.8616
5 Alberti, Lazlo --- 21:01 42.823 5/48 OSEM 4/25 0.9123
6 Parkin, Brian OBC 21:04 42.722 6/48 OVAM 2/11 0.9193
Y 7 Franks, Greg & Moerman, Bram --- 21:10 42.520 7/48 TAN 1/1  
8 Aller, Brian --- 21:14 42.386 8/48 OVAM 3/11 0.9697
9 Boudreau, Marc --- 21:28 41.925 9/48 OSEM 5/25 0.9768
Reinisch, Stephen --- 21:28 41.925 9/48 OSEM 5/25 0.9406
11 Campbell, Colin  OBC 21:29 41.893 11/48 OSEM 7/25 0.9452
12 Martignago, Mike OBC 21:37 41.635 12/48 OVAM 4/11 0.9977
13 Bence, John OBC 21:38 41.602 13/48 OSEM 8/25 0.9300
14 Buffa, Alex  OBC 21:47 41.316 14/48 OSEM 9/25 0.9066
Fraser, Ian --- 21:47 41.316 14/48 OSEM 9/25 0.9088
16 St-Amour, Pierre OBC 21:48 41.284 16/48 OVAM 5/11 0.9089
17 Séguin, Patrick --- 22:16 40.419 17/48 OSEM 11/25  
18 Allaire, François --- 22:17 40.389 18/48 OSEM 12/25 0.9385
19 Chiarelli, Marc --- 22:38 39.764 19/48 OSEM 13/25  
20 Hellard, Rick --- 22:40 39.706 20/48 OSEM 14/25  
Roy, Eric --- 22:40 39.706 20/48 OSEM 14/25 0.8614
22 Schuck, Peter  OBC 22:50 39.416 22/48 OVAM 6/11 0.8446
23 Plug, Hans --- 22:53 39.330 23/48 OVAM 7/11  
24 Hamon, Frederic --- 23:01 39.102 24/48 OSEM 16/25 1.0000
25 Pritlove, James --- 23:02 39.074 25/48 OSEM 17/25 0.9157
26 Hamm, Junior --- 23:11 38.821 26/48 OSEM 18/25 1.7998
Lewis, Ron OBC 23:11 38.821 26/48 OVAM 8/11 1.0482
28 Bachman, Mike OBC 23:18 38.627 28/48 OVCM 1/3 0.9066
29 Montpetit, Stephane --- 23:25 38.434 29/48 OSEM 19/25 1.0150
30 Thompson, Grant OBC 23:31 38.271 30/48 XXM 1/1 1.3334
31 Moyland, Bill --- 23:33 38.217 31/48 OSEM 20/25  
32 Boissonneault, France OBC 23:34 38.190 32/48 OVAF 1/3 0.9707
33 Aller, Mo OBC 23:38 38.082 33/48 OVCM 2/3 0.9936
34 Singer, Les --- 23:40 38.028 34/48 OVAM 9/11 1.0127
35 Weiman, David --- 23:53 37.683 35/48 OSEM 21/25 0.9710
36 Anderson, Allan OBC 23:55 37.631 36/48 OVAM 10/11 0.9069
37 Ajersch, Mary  OBC 24:37 36.561 37/48 OVBF 1/2 0.9540
Ward, Kevin --- 24:37 36.561 37/48 OVAM 11/11  
39 FitzGerald, Dennis ABC 25:13 35.691 39/48 OVBM 1/1 0.9436
40 Sheil, Norman --- 25:16 35.620 40/48 OVCM 3/3  
41 Soucy, Dominic --- 25:18 35.573 41/48 OSEM 22/25 0.8824
42 Mariotti, Eddy --- 25:23 35.456 42/48 OSEM 23/25  
43 Chen, Jonathan --- 25:46 34.929 43/48 OSEM 24/25 0.8791
44 Pepper, Anne --- 25:52 34.794 44/48 OSEF 1/1 0.9487
45 McInnis, Celia  OBC 25:59 34.638 45/48 OVAF 2/3 0.8748
46 Gerber, Rosmarie OBC 27:44 32.452 46/48 OVBF 2/2 0.9177
47 Kusyk, Richard --- 29:02 30.999 47/48 OSEM 25/25  
48 Roy, Ginette --- 31:24 28.662 48/48 OVAF 3/3 1.0817
 
Average Speed of all of the above 48 finishes (720km in 18:39:46):38.579
>>>Average of the Average Speeds for these 48 finishes38.887<<<
 

The number of data records shown above is 48
The server processing of your query took: 1 wallclock secs ( 0.07 usr + 0.00 sys = 0.07 CPU)

     


Apr 1 (Good Friday) Apr 14 Apr 21 Apr 28
May 3 May 5 May 10 May 12 (22km) May 15 (40km) May 17 May 19 May 24 May 24 (10km) May 26 (cancelled) May 29 (40km)
Jun 2 Jun 5 (38km) Jun 7 Jun 9 Jun 14 (40km) Jun 14 Jun 16 Jun 21 Jun 21 Jun 23 Jun 26 (40km/80km) Jun 28 (40km) Jun 28 Jun 29
Jul 5 Jul 6 Jul 7 Jul 10 (22km) Jul 12 Jul 13 Jul 14 Jul 19 Jul 20 Jul 21 Jul 24 (38km) Jul 26 Jul 27 Jul 28
Aug 2 Aug 3 Aug 9 Aug 10 Aug 11 Aug 14 (40km/80km) Aug 16 Aug 17 Aug 18 Aug 20 (22km) Aug 23 Aug 24 Aug 28 (38km) Aug 30 (Invitational) Aug 31
  Sep 1  
Sep 6 Sep 8 Sep 13 Sep 20 Sep 25 (40km)

OTT Rankings
Best       Best by category
WTT Rankings for OBC Members
5 Best 15km     5 Best 15km by category
OBC Member Best Three 15km Rankings
Overall     by category
OBC BAR Ranking
Overall     by category     Rider "Consistency-Graph"
ABC BAR Ranking
Overall     by category     Rider "Consistency-Graph"
Other years
TT Calculator All TT People All TT events
ABC Home VVV Home
CKAP GOLD MEDAL
Other Links

Please send your comments and suggestions to: Celia McInnis
Copyright © 1998-2011 Celia McInnis. All rights reserved. Links are welcomed.